Terminal Aerodrome Forecast
Issued by NWS

Home | Current Version | Previous Version | Graphics & Text | Print | Product List | Glossary On
Versions: 1 2 3 4 5 6 7 8 9 10 11 12 13 14 15 16 17
000
FTUS43 KMPX 222339
TAFRNH
TAF
KRNH 222339Z 2300/2324 18010G18KT P6SM FEW250
     FM230400 16007KT P6SM FEW250 WS020/19040KT
     FM231200 16012KT P6SM SCT025 BKN050 WS020/21040KT
     FM231500 17012G20KT 6SM SHRA SCT025 OVC040
      TEMPO 2315/2318 3SM TSRA BKN025CB
     FM231800 19014G20KT P6SM VCSH SCT030 OVC050
      TEMPO 2320/2324 3SM TSRA BKN030CB=

USA.gov is the U.S. government's official web portal to all federal, state and local government web resources and services.